Search for airport 
image banner adimage banner adimage banner ad
image banner ad

L72 - Trona

Located in Trona, United States

ICAO - L72, IATA -

Data provided by Airmate  

General information

Coordinates: N35°48'46" W117°19'37"
Elevation is 1718 feet MSL.
Magnetic variation is 14° East
View others Airports in California

Operational data

Special qualification required
Current time UTC:
Current local time:
METAR: KNID 210156Z 11006KT 10SM FEW050 29/M03 A3002 RMK AO2 SLP151 FU FEW050 FU HZ ALQDS MTNS OBSCRD SW-NE T02941028 $
TAF: TAF COR KNID 2023/2123 13007KT 9999 SKC QNH2997INS FU/HZ ALQDS MTNS OBSCRD SW-NE WND 080V180 BECMG 2101/2103 21007KT 8000 FU HZ FEW000 QNH2999INS FU FEW000 WND 180V280 BECMG 2113/2115 VRB05KT 4800 FU HZ SCT000 QNH3004INS FU SCT000 MTNS OBSCRD TEMPO 2115/2119 3200 FU HZ BECMG 2119/2121 16007KT 6000 FU HZ FEW000 QNH3014INS FU FEW000 MTNS OBSCRD SW-NE BECMG 2121/2123 21007KT 8000 FU HZ FEW000 QNH3012INS FU FEW000 MTNS OBSCRD SW-NE T15/2113Z T36/2123Z COR 2330
View NOTAMs / SUP AIP / TFR affecting this airport [VIEW]
Communications frequencies: [VIEW]

Runways:

RWY identifierQFULength (ft)Width (ft)SurfaceLDA (ft)
17189°591060ASPH
35591060ASPH

Airport contact information

Address: Trona United States

Satellite view of L72